Aviation Digital Data Service (ADDS)

Output produced by METARs form (1118 UTC 19 January 2019)
found at http://www.aviationweather.gov/metar/data/
 
UMBB 191100Z 28007G10MPS 8000 OVC021 M02/M05 Q1020 NOSIG
TAF UMBB 190805Z 1909/1918 24005G10MPS 6000 SCT010 
     TEMPO 1909/1912 2100 -SHSN BR SCT005 SCT015CB 
       
UMGG 191100Z 24006MPS 9999 BKN043 M01/M05 Q1017 R28/910550 NOSIG
TAF UMGG 190500Z 1906/2006 25007MPS 6000 BKN010 
     TEMPO 1906/1915 3000 -SHSN BLSN BR BKN005 BKN015CB 
     TEMPO 1918/2006 23004MPS 1200 BCFG BR BKN004
       
UMMG 191100Z 25007G10MPS OVC011 M02/M04 Q1018 NOSIG
TAF UMMG 190808Z 1909/1918 26007G12MPS 6000 BKN007 BKN010CB 
     TEMPO 1909/1916 2000 SHSN BLSN BR BKN005
       
UMMS 191100Z 28004G07MPS 9999 BKN016 M02/M05 Q1015 R31/820436 NOSIG
TAF UMMS 190502Z 1906/2006 25006G11MPS 9999 SCT005 BKN010 
     TEMPO 1906/1918 27009G14MPS 0800 +SHSN BLSN BKN003 BKN015CB 
     TEMPO 1918/2006 1200 SHSN BLSN BKN003 BKN012CB
       
UMOO 191100Z 27005G08MPS 9999 BKN018 BKN/// M03/M05 Q1014 R31/720228 NOSIG
TAF UMOO 190800Z 1909/1918 24005G10MPS 8000 BKN008 
     TEMPO 1909/1918 27007G12MPS 1500 SHSN BLSN BR BKN004 BKN010CB